Time;durP1;ratioP1;P1;durP2;ratioP2;P2;SDS_P1;SDS_P2;PMS_P1;PMS_P2;Temp;Humidity;BMP_temperature;BMP_pressure;BME280_temperature;BME280_humidity;BME280_pressure;Samples;Min_cycle;Max_cycle;Signal;HPM_P1;HPM_P2
2021/12/13 00:01:16;;;;;;;9.82;4.20;;;;;;;15.03;62.03;102412.59;5120589;27;20393;-61
2021/12/13 00:03:56;;;;;;;8.47;4.50;;;;;;;15.05;62.12;102400.38;5119206;27;20031;-58
2021/12/13 00:06:31;;;;;;;6.20;4.05;;;;;;;15.00;62.14;102395.19;5123738;27;20038;-61
2021/12/13 00:09:00;;;;;;;6.13;4.05;;;;;;;15.03;62.02;102403.00;5088581;27;20508;-60
2021/12/13 00:11:31;;;;;;;7.22;4.13;;;;;;;14.97;62.04;102388.22;5118713;27;20027;-61
2021/12/13 00:14:14;;;;;;;6.55;4.18;;;;;;;15.01;61.85;102383.88;5118968;27;20063;-60
2021/12/13 00:16:43;;;;;;;8.88;4.18;;;;;;;15.03;62.04;102394.28;5118951;27;20550;-60
2021/12/13 00:19:14;;;;;;;7.30;4.00;;;;;;;14.98;62.25;102384.75;5116514;27;20041;-61
2021/12/13 00:21:47;;;;;;;6.68;4.10;;;;;;;15.03;62.19;102394.28;5118697;27;20144;-61
2021/12/13 00:24:35;;;;;;;7.18;4.13;;;;;;;15.07;62.02;102396.00;5119316;27;20037;-60
2021/12/13 00:27:10;;;;;;;6.05;3.83;;;;;;;15.03;62.09;102391.69;5118772;27;20114;-60
2021/12/13 00:29:38;;;;;;;7.13;4.10;;;;;;;15.02;62.13;102398.69;5117310;27;20050;-60
2021/12/13 00:32:23;;;;;;;7.53;4.20;;;;;;;15.05;61.88;102401.25;5118231;27;20472;-60
2021/12/13 00:34:54;;;;;;;5.25;3.97;;;;;;;15.01;61.81;102398.66;5119682;27;20469;-60
2021/12/13 00:37:38;;;;;;;6.40;4.05;;;;;;;14.98;62.02;102399.56;5117380;27;20032;-60
2021/12/13 00:40:14;;;;;;;5.90;4.00;;;;;;;15.02;62.06;102408.25;5117393;27;20028;-59
2021/12/13 00:42:45;;;;;;;;;;;;;;;15.15;61.19;102412.50;5117990;27;20032;-61
2021/12/13 00:45:13;;;;;;;6.63;3.80;;;;;;;14.98;61.84;102408.25;5117230;27;20004;-61
2021/12/13 00:47:42;;;;;;;5.72;3.60;;;;;;;15.02;61.75;102416.09;5117924;27;20023;-59
2021/12/13 00:50:13;;;;;;;8.70;3.97;;;;;;;14.93;61.88;102402.22;5117772;27;20024;-60
2021/12/13 00:52:43;;;;;;;6.28;3.97;;;;;;;14.99;62.02;102419.59;5117954;27;20469;-61
2021/12/13 00:55:12;;;;;;;5.85;3.83;;;;;;;14.88;62.18;102392.69;5117785;27;20053;-60
2021/12/13 00:58:03;;;;;;;5.55;3.72;;;;;;;14.98;62.10;102416.09;5117576;27;20043;-59
2021/12/13 01:00:33;;;;;;;6.18;3.80;;;;;;;14.99;61.95;102414.38;5105091;27;20043;-61
2021/12/13 01:03:04;;;;;;;5.75;3.80;;;;;;;15.00;61.93;102423.06;5118330;27;20055;-60
2021/12/13 01:05:44;;;;;;;5.32;3.70;;;;;;;15.00;61.82;102425.69;5119075;27;20027;-60
2021/12/13 01:08:29;;;;;;;5.22;3.75;;;;;;;14.98;61.73;102426.56;5105628;27;20049;-60
2021/12/13 01:10:54;;;;;;;4.50;3.53;;;;;;;14.98;61.81;102420.47;5118667;27;20050;-61
2021/12/13 01:13:23;;;;;;;6.63;3.80;;;;;;;14.98;61.83;102429.19;5113525;27;20023;-61
2021/12/13 01:16:00;;;;;;;4.85;3.42;;;;;;;14.94;61.88;102418.75;5118933;27;20027;-60
2021/12/13 01:18:58;;;;;;;7.22;3.90;;;;;;;14.97;61.79;102421.38;5114016;27;20020;-60
2021/12/13 01:21:39;;;;;;;5.45;3.67;;;;;;;14.93;61.74;102424.88;5110193;27;20032;-60
2021/12/13 01:24:13;;;;;;;4.68;3.50;;;;;;;14.96;61.86;102424.84;5117918;27;20023;-61
2021/12/13 01:26:45;;;;;;;5.45;3.67;;;;;;;14.94;61.81;102426.59;5116946;27;20024;-60
2021/12/13 01:29:22;;;;;;;5.40;3.67;;;;;;;14.94;61.76;102427.50;5114226;27;20126;-60
2021/12/13 01:31:58;;;;;;;5.00;3.47;;;;;;;14.88;62.12;102418.84;5116182;27;20027;-61
2021/12/13 01:34:25;;;;;;;6.57;3.67;;;;;;;14.93;62.07;102433.59;5116517;27;20027;-61
2021/12/13 01:37:07;;;;;;;5.78;3.70;;;;;;;14.85;61.99;102419.72;5117279;27;20028;-59
2021/12/13 01:39:35;;;;;;;5.82;3.75;;;;;;;14.91;61.98;102427.50;5113948;27;20420;-61
2021/12/13 01:42:12;;;;;;;5.22;3.60;;;;;;;14.96;61.95;102446.66;5116377;27;20019;-60
2021/12/13 01:44:42;;;;;;;5.93;3.72;;;;;;;14.95;61.88;102444.91;5116170;27;20032;-59
2021/12/13 01:47:12;;;;;;;5.88;3.40;;;;;;;14.95;61.99;102444.03;5100251;27;20050;-60
2021/12/13 01:49:44;;;;;;;6.22;3.72;;;;;;;14.91;61.94;102451.03;5116015;27;21551;-61
2021/12/13 01:52:31;;;;;;;5.75;3.70;;;;;;;14.94;61.75;102443.19;5116695;28;20023;-61
2021/12/13 01:55:00;;;;;;;5.75;3.80;;;;;;;14.93;61.81;102458.84;5122211;27;20521;-60
2021/12/13 02:03:15;;;;;;;6.70;3.88;;;;;;;14.94;61.57;102453.63;5126760;27;20053;-61
2021/12/13 02:05:46;;;;;;;7.03;3.77;;;;;;;14.94;62.00;102448.41;5127468;27;20027;-60
2021/12/13 02:08:16;;;;;;;5.43;3.70;;;;;;;14.97;61.92;102456.19;5122462;27;20461;-59
2021/12/13 02:10:41;;;;;;;5.18;3.50;;;;;;;14.99;61.92;102461.44;5124522;27;20062;-60
2021/12/13 02:13:15;;;;;;;4.37;3.50;;;;;;;15.00;62.27;102463.19;5126881;27;20396;-60
2021/12/13 02:18:33;;;;;;;7.03;4.38;;;;;;;14.97;62.23;102458.81;5122265;27;20728;-60
2021/12/13 02:21:28;;;;;;;6.10;3.83;;;;;;;15.02;61.88;102460.53;5124550;27;20039;-61
2021/12/13 02:24:10;;;;;;;5.18;3.65;;;;;;;14.96;61.93;102451.88;5124507;27;20050;-59
2021/12/13 02:26:40;;;;;;;4.95;3.50;;;;;;;14.94;62.10;102439.69;5126868;27;20452;-60
2021/12/13 02:29:19;;;;;;;6.05;3.65;;;;;;;14.89;61.78;102442.34;5122104;27;20066;-58
2021/12/13 02:31:46;;;;;;;5.65;3.63;;;;;;;14.93;62.08;102449.28;5124882;27;20473;-58
2021/12/13 02:34:15;;;;;;;4.95;3.70;;;;;;;14.94;61.87;102450.13;5126359;27;20072;-60
2021/12/13 02:36:50;;;;;;;5.90;3.88;;;;;;;14.89;61.84;102437.09;5124395;27;20071;-60
2021/12/13 02:39:20;;;;;;;5.50;3.70;;;;;;;14.91;61.84;102445.81;5122588;27;20028;-59
2021/12/13 02:41:46;;;;;;;5.00;3.80;;;;;;;14.89;61.92;102441.47;5125066;27;20052;-59
2021/12/13 02:44:22;;;;;;;6.32;3.80;;;;;;;14.88;61.97;102432.75;5126824;27;20027;-59
2021/12/13 02:46:47;;;;;;;6.85;3.65;;;;;;;14.90;61.76;102444.06;5125618;27;20038;-60
2021/12/13 02:49:16;;;;;;;6.67;3.73;;;;;;;14.87;61.84;102440.63;5122825;27;20023;-61
2021/12/13 02:51:54;;;;;;;6.45;4.13;;;;;;;14.88;61.98;102444.97;5127049;27;20444;-59
2021/12/13 02:54:24;;;;;;;4.72;3.60;;;;;;;14.87;61.87;102444.09;5108976;27;20029;-61
2021/12/13 02:56:54;;;;;;;6.25;3.83;;;;;;;14.88;61.78;102447.59;5125643;27;20050;-58
2021/12/13 02:59:22;;;;;;;5.57;3.70;;;;;;;14.86;61.95;102447.56;5123297;27;20055;-60
2021/12/13 03:02:12;;;;;;;5.43;3.50;;;;;;;14.92;61.99;102447.53;5126829;27;20072;-60
2021/12/13 03:04:38;;;;;;;8.93;3.97;;;;;;;14.90;61.91;102458.91;5125392;27;20027;-59
2021/12/13 03:07:17;;;;;;;6.18;3.80;;;;;;;14.87;61.90;102451.94;5123562;27;20054;-60
2021/12/13 03:09:46;;;;;;;6.15;3.70;;;;;;;14.88;61.89;102453.66;5102591;27;20130;-60
2021/12/13 03:12:16;;;;;;;5.32;3.60;;;;;;;14.85;62.03;102445.88;5122033;27;20070;-60
2021/12/13 03:14:49;;;;;;;5.53;3.70;;;;;;;14.86;61.83;102444.97;5121509;27;20024;-59
2021/12/13 03:17:14;;;;;;;5.65;3.90;;;;;;;14.90;62.02;102451.06;5123622;27;20015;-58
2021/12/13 03:19:39;;;;;;;6.80;3.80;;;;;;;14.90;61.88;102441.47;5123358;27;20027;-60
2021/12/13 03:22:33;;;;;;;5.93;3.83;;;;;;;14.92;61.71;102446.66;5121191;27;20023;-60
2021/12/13 03:25:19;;;;;;;5.47;3.60;;;;;;;14.92;61.82;102455.38;5123813;27;20460;-59
2021/12/13 03:27:59;;;;;;;5.95;3.63;;;;;;;14.89;62.13;102455.41;5120358;27;20031;-58
2021/12/13 03:30:32;;;;;;;5.10;3.50;;;;;;;14.88;61.86;102460.66;5121706;27;20038;-60
2021/12/13 03:33:05;;;;;;;6.38;3.90;;;;;;;14.79;61.82;102440.66;5122719;27;20030;-59
2021/12/13 03:35:45;;;;;;;6.30;3.85;;;;;;;14.89;61.57;102460.63;5122142;27;20064;-59
2021/12/13 03:38:17;;;;;;;5.18;3.80;;;;;;;14.84;61.91;102451.97;5120533;27;20122;-58
2021/12/13 03:40:43;;;;;;;6.57;3.70;;;;;;;14.87;61.78;102459.75;5123790;27;20030;-59
2021/12/13 03:43:17;;;;;;;5.93;3.90;;;;;;;14.79;61.71;102443.28;5123249;27;20044;-60
2021/12/13 03:45:47;;;;;;;5.88;3.83;;;;;;;14.87;62.00;102465.00;5122742;27;20389;-60
2021/12/13 03:48:15;;;;;;;6.70;3.90;;;;;;;14.87;61.89;102458.91;5119475;27;20486;-60
2021/12/13 03:50:44;;;;;;;7.18;4.07;;;;;;;14.83;62.00;102460.69;5122702;27;20393;-58
2021/12/13 03:53:21;;;;;;;6.80;4.07;;;;;;;14.83;61.65;102448.47;5123464;27;20508;-59
2021/12/13 03:55:50;;;;;;;6.07;3.70;;;;;;;14.82;61.65;102453.72;5121901;27;20411;-59
2021/12/13 03:58:20;;;;;;;5.80;3.55;;;;;;;14.83;61.80;102460.69;5121600;27;20055;-60
2021/12/13 04:00:54;;;;;;;6.43;3.78;;;;;;;14.83;61.88;102463.31;5119477;27;20524;-60
2021/12/13 04:03:22;;;;;;;5.72;3.70;;;;;;;14.85;61.92;102466.78;5122523;27;20039;-59
2021/12/13 04:05:48;;;;;;;6.53;3.90;;;;;;;14.86;61.87;102460.63;5122894;27;20061;-60
2021/12/13 04:08:17;;;;;;;5.13;3.60;;;;;;;14.84;61.81;102459.81;5117173;27;20031;-60
2021/12/13 04:10:52;;;;;;;5.47;3.70;;;;;;;14.86;61.81;102463.25;5098950;27;20296;-61
2021/12/13 04:13:20;;;;;;;7.03;3.80;;;;;;;14.85;61.78;102458.06;5119334;27;20126;-60
2021/12/13 04:16:35;;;;;;;5.75;3.70;;;;;;;14.88;61.61;102461.50;5118018;27;20030;-59
2021/12/13 04:19:11;;;;;;;5.53;3.70;;;;;;;14.87;61.42;102464.13;5111371;27;20032;-61
2021/12/13 04:21:49;;;;;;;8.20;4.10;;;;;;;14.84;62.03;102459.81;5117648;27;20038;-61
2021/12/13 04:24:37;;;;;;;8.27;4.20;;;;;;;14.91;61.90;102469.34;5119526;27;20123;-60
2021/12/13 04:27:15;;;;;;;7.30;4.15;;;;;;;14.84;61.77;102459.81;5119936;27;20543;-60
2021/12/13 04:29:42;;;;;;;7.60;4.07;;;;;;;14.82;62.10;102462.41;5114406;27;20030;-60
2021/12/13 04:32:18;;;;;;;6.63;3.80;;;;;;;14.88;61.81;102471.97;5119629;27;20019;-60
2021/12/13 04:34:44;;;;;;;7.30;4.03;;;;;;;14.86;61.84;102470.25;5117147;27;20026;-60
2021/12/13 04:37:13;;;;;;;5.32;3.53;;;;;;;14.87;61.71;102474.59;5121179;27;20366;-59
2021/12/13 04:39:42;;;;;;;5.90;3.85;;;;;;;14.82;61.77;102467.66;5117693;27;20023;-60
2021/12/13 04:42:11;;;;;;;6.40;3.88;;;;;;;14.84;62.05;102472.88;5119870;27;20027;-60
2021/12/13 04:44:50;;;;;;;6.25;3.58;;;;;;;14.86;61.73;102471.09;5118904;27;20038;-59
2021/12/13 04:47:24;;;;;;;6.03;3.97;;;;;;;14.86;61.80;102470.25;5120563;27;20042;-59
2021/12/13 04:50:05;;;;;;;6.88;4.03;;;;;;;14.89;61.66;102462.38;5117021;27;20050;-60
2021/12/13 04:52:33;;;;;;;5.03;3.70;;;;;;;14.87;61.98;102469.38;5119299;27;20079;-60
2021/12/13 04:55:01;;;;;;;6.95;4.03;;;;;;;14.85;61.86;102465.91;5121708;27;20021;-59
2021/12/13 04:57:28;;;;;;;6.53;3.78;;;;;;;14.79;61.77;102454.63;5121956;27;20074;-60
2021/12/13 04:59:58;;;;;;;6.72;3.85;;;;;;;14.85;61.89;102466.78;5117778;27;20029;-61
2021/12/13 05:02:25;;;;;;;6.88;3.83;;;;;;;14.85;61.84;102468.50;5118969;27;20136;-58
2021/12/13 05:04:59;;;;;;;5.85;3.90;;;;;;;14.82;61.77;102454.56;5126151;27;20097;-60
2021/12/13 05:07:26;;;;;;;5.60;3.58;;;;;;;14.75;61.85;102441.59;5126319;27;20070;-59
2021/12/13 05:09:52;;;;;;;6.25;3.70;;;;;;;14.84;62.00;102462.44;5093031;27;20047;-60
2021/12/13 05:12:22;;;;;;;7.50;3.92;;;;;;;14.84;61.92;102465.03;5128343;27;20031;-58
2021/12/13 05:14:51;;;;;;;6.05;3.80;;;;;;;14.82;61.94;102466.78;5122177;27;20069;-59
2021/12/13 05:17:23;;;;;;;6.57;3.72;;;;;;;14.79;61.94;102462.47;5126816;27;20530;-60
2021/12/13 05:19:57;;;;;;;7.07;3.60;;;;;;;14.84;61.55;102465.03;5119647;27;20468;-61
2021/12/13 05:22:23;;;;;;;6.53;4.00;;;;;;;14.83;61.99;102471.16;5121042;27;20026;-61
2021/12/13 05:24:56;;;;;;;6.20;3.90;;;;;;;14.80;61.79;102465.94;5128768;27;20028;-58
2021/12/13 05:27:33;;;;;;;6.15;3.90;;;;;;;14.84;61.86;102472.88;5121630;27;20074;-60
2021/12/13 05:30:14;;;;;;;6.13;3.60;;;;;;;14.85;61.89;102473.72;5116346;27;20031;-59
2021/12/13 05:32:45;;;;;;;5.43;3.65;;;;;;;14.81;61.87;102473.75;5128749;27;20027;-59
2021/12/13 05:35:23;;;;;;;4.43;3.30;;;;;;;14.85;61.69;102466.78;5121911;27;20031;-59
2021/12/13 05:37:53;;;;;;;6.13;3.92;;;;;;;14.83;61.78;102471.16;5120774;27;20026;-60
2021/12/13 05:40:23;;;;;;;6.53;3.70;;;;;;;14.81;61.75;102470.28;5125738;27;20026;-59
2021/12/13 05:42:55;;;;;;;5.72;3.83;;;;;;;14.82;62.09;102477.25;5120627;27;20027;-61
2021/12/13 05:45:47;;;;;;;6.10;3.78;;;;;;;14.87;61.84;102479.81;5125517;27;20027;-60
2021/12/13 05:48:22;;;;;;;5.57;3.70;;;;;;;14.83;61.87;102481.59;5124044;27;20027;-59
2021/12/13 05:50:57;;;;;;;6.20;3.53;;;;;;;14.78;61.92;102463.34;5120785;27;20023;-60
2021/12/13 05:53:32;;;;;;;5.70;3.47;;;;;;;14.79;61.89;102466.81;5125767;28;20023;-60
2021/12/13 05:56:04;;;;;;;7.25;3.72;;;;;;;14.84;62.05;102480.72;5120896;28;20031;-60
2021/12/13 05:58:41;;;;;;;7.40;4.07;;;;;;;14.82;61.72;102483.31;5111101;28;21276;-60
2021/12/13 06:01:30;;;;;;;4.82;3.33;;;;;;;14.85;61.70;102472.00;5120012;28;20035;-61
2021/12/13 06:04:13;;;;;;;6.45;3.58;;;;;;;14.86;61.75;102483.31;5124696;28;20027;-60
2021/12/13 06:06:49;;;;;;;5.82;3.83;;;;;;;14.80;62.22;102474.66;5120754;28;20103;-58
2021/12/13 06:09:45;;;;;;;5.57;3.57;;;;;;;14.87;61.79;102485.06;5113107;28;20469;-58
2021/12/13 06:12:15;;;;;;;5.90;3.65;;;;;;;14.82;62.12;102477.25;5124889;28;20077;-59
2021/12/13 06:14:41;;;;;;;5.72;3.50;;;;;;;14.79;62.39;102477.25;5117363;28;20417;-61
2021/12/13 06:17:32;;;;;;;6.07;3.72;;;;;;;14.83;61.80;102476.38;5121051;28;20027;-59
2021/12/13 06:20:02;;;;;;;7.03;3.80;;;;;;;14.85;62.26;102486.81;5114036;28;20528;-61
2021/12/13 06:22:31;;;;;;;6.70;3.97;;;;;;;14.81;62.48;102483.34;5117766;28;20479;-60
2021/12/13 06:25:00;;;;;;;11.77;4.57;;;;;;;14.80;62.56;102473.78;5120446;28;20035;-58
2021/12/13 06:27:30;;;;;;;12.48;5.53;;;;;;;14.78;62.56;102481.63;5116656;28;20023;-59
2021/12/13 06:30:17;;;;;;;12.75;6.10;;;;;;;14.81;62.58;102491.19;5116503;28;20035;-60
2021/12/13 06:32:59;;;;;;;13.80;6.10;;;;;;;14.78;62.63;102496.44;5114988;28;20431;-59
2021/12/13 06:35:39;;;;;;;12.35;6.03;;;;;;;14.73;62.29;102493.00;5114514;28;20027;-59
2021/12/13 06:38:19;;;;;;;14.43;6.70;;;;;;;14.74;62.14;102498.19;5111995;28;20482;-60
2021/12/13 06:40:58;;;;;;;13.75;6.47;;;;;;;14.69;62.36;102496.50;5109409;28;20026;-61
2021/12/13 06:43:45;;;;;;;15.02;6.78;;;;;;;14.70;62.05;102503.47;5126002;27;20027;-58
2021/12/13 06:46:20;;;;;;;14.52;6.50;;;;;;;14.64;62.23;102505.19;5125750;27;20504;-61
2021/12/13 06:48:48;;;;;;;13.25;6.10;;;;;;;14.58;62.19;102492.16;5129936;27;20388;-60
2021/12/13 06:51:17;;;;;;;12.50;6.07;;;;;;;14.59;62.29;102501.75;5128913;27;20111;-60
2021/12/13 06:54:04;;;;;;;13.95;6.45;;;;;;;14.64;61.86;102506.94;5124974;27;20122;-60
2021/12/13 06:56:32;;;;;;;14.90;7.25;;;;;;;14.56;62.14;102504.38;5134515;27;20027;-60
2021/12/13 06:59:02;;;;;;;13.52;6.90;;;;;;;14.56;62.11;102499.13;5130561;27;20055;-59
2021/12/13 07:01:33;;;;;;;16.30;6.72;;;;;;;14.45;61.97;102496.59;5120127;27;20023;-60
2021/12/13 07:04:09;;;;;;;12.38;6.07;;;;;;;14.59;62.12;102506.97;5114624;28;20115;-60
2021/12/13 07:06:35;;;;;;;14.88;6.40;;;;;;;14.56;62.17;102504.38;5114641;28;20030;-60
2021/12/13 07:09:12;;;;;;;12.07;5.77;;;;;;;14.56;61.95;102509.59;5114337;28;20111;-60
2021/12/13 07:11:53;;;;;;;10.88;5.22;;;;;;;14.60;62.04;102513.06;5122433;27;20028;-60
2021/12/13 07:14:30;;;;;;;12.93;5.40;;;;;;;14.58;62.16;102510.47;5113609;28;20043;-60
2021/12/13 07:16:56;;;;;;;11.35;5.30;;;;;;;14.60;62.08;102519.16;5113752;28;20370;-60
2021/12/13 07:19:27;;;;;;;10.43;5.40;;;;;;;14.63;62.09;102510.44;5114279;28;20119;-61
2021/12/13 07:21:56;;;;;;;10.80;5.40;;;;;;;14.54;62.24;102500.88;5114241;28;20378;-60
2021/12/13 07:24:43;;;;;;;12.20;5.28;;;;;;;14.64;61.92;102510.41;5114187;28;20031;-60
2021/12/13 07:27:16;;;;;;;10.85;5.53;;;;;;;14.60;62.10;102519.16;5113570;28;20030;-59
2021/12/13 07:29:55;;;;;;;11.93;5.35;;;;;;;14.62;61.76;102522.63;5095695;28;20371;-60
2021/12/13 07:32:28;;;;;;;10.43;5.28;;;;;;;14.64;62.13;102533.06;5126376;27;20369;-60
2021/12/13 07:34:56;;;;;;;11.52;5.20;;;;;;;14.64;62.03;102531.31;5134849;27;20102;-60
2021/12/13 07:37:57;;;;;;;12.20;5.00;;;;;;;14.69;61.68;102530.47;5134865;27;20102;-59
2021/12/13 07:40:36;;;;;;;9.50;4.85;;;;;;;14.61;61.85;102520.91;5134506;27;20038;-60
2021/12/13 07:43:08;;;;;;;11.15;5.03;;;;;;;14.64;62.15;102539.16;5115803;27;20164;-60
2021/12/13 07:45:59;;;;;;;10.25;5.22;;;;;;;14.52;61.92;102519.19;5134576;27;20057;-60
2021/12/13 07:48:34;;;;;;;10.95;5.43;;;;;;;14.64;61.86;102536.53;5134070;27;20031;-60
2021/12/13 07:51:03;;;;;;;10.30;5.10;;;;;;;14.62;61.64;102533.09;5134541;27;20025;-59
2021/12/13 07:53:37;;;;;;;10.27;4.90;;;;;;;14.60;61.83;102540.06;5133765;27;20125;-60
2021/12/13 07:56:03;;;;;;;8.35;4.57;;;;;;;14.62;61.60;102545.28;5134733;27;20504;-60
2021/12/13 07:58:39;;;;;;;11.13;4.93;;;;;;;14.56;61.69;102540.94;5130095;27;20118;-59
2021/12/13 08:01:18;;;;;;;11.25;5.30;;;;;;;14.59;61.78;102543.56;5133964;27;20720;-60
2021/12/13 08:03:47;;;;;;;10.63;4.80;;;;;;;14.62;61.97;102554.00;5135937;27;20019;-60
2021/12/13 08:06:13;;;;;;;10.40;4.97;;;;;;;14.61;61.71;102549.66;5135970;27;20145;-61
2021/12/13 08:08:47;;;;;;;9.23;4.67;;;;;;;14.60;61.92;102542.69;5135709;27;20130;-60
2021/12/13 08:11:13;;;;;;;10.65;4.80;;;;;;;14.65;61.79;102550.50;5135489;27;20025;-60
2021/12/13 08:13:38;;;;;;;10.17;4.53;;;;;;;14.67;61.83;102554.84;5134742;27;20118;-60
2021/12/13 08:16:08;;;;;;;8.83;4.60;;;;;;;14.67;61.61;102554.00;5135830;27;20035;-60
2021/12/13 08:18:40;;;;;;;10.57;4.93;;;;;;;14.67;61.96;102548.78;5135509;27;20019;-60
2021/12/13 08:21:10;;;;;;;7.68;4.43;;;;;;;14.62;61.94;102540.94;5135308;27;20151;-61
2021/12/13 08:23:45;;;;;;;10.13;4.70;;;;;;;14.60;61.88;102541.78;5135676;27;20077;-61
2021/12/13 08:26:16;;;;;;;8.57;4.22;;;;;;;14.61;61.88;102553.97;5135468;27;20027;-61
2021/12/13 08:28:48;;;;;;;9.38;4.55;;;;;;;14.62;61.80;102547.88;5135424;27;20027;-61
2021/12/13 08:31:27;;;;;;;9.32;4.22;;;;;;;14.67;61.88;102554.84;5135484;27;20046;-61
2021/12/13 08:33:59;;;;;;;10.20;4.68;;;;;;;14.65;61.60;102556.56;5134678;27;20066;-60
2021/12/13 08:36:30;;;;;;;8.48;4.40;;;;;;;14.64;61.48;102549.59;5133284;27;20346;-60
2021/12/13 08:39:15;;;;;;;9.50;4.95;;;;;;;14.66;62.04;102555.69;5134995;27;20060;-60
2021/12/13 08:41:43;;;;;;;8.43;4.40;;;;;;;14.64;61.60;102551.38;5134322;27;20473;-60
2021/12/13 08:44:11;;;;;;;8.52;4.38;;;;;;;14.63;61.60;102550.50;5135390;27;20031;-60
2021/12/13 08:46:51;;;;;;;7.68;4.30;;;;;;;14.61;61.88;102548.75;5134830;27;20032;-59
2021/12/13 08:49:19;;;;;;;10.45;4.30;;;;;;;14.61;61.81;102553.97;5135095;27;20107;-60
2021/12/13 08:52:14;;;;;;;9.60;4.30;;;;;;;14.68;61.71;102563.59;5135057;27;20023;-60
2021/12/13 08:54:55;;;;;;;8.88;4.20;;;;;;;14.64;61.93;102562.66;5090689;27;20422;-60
2021/12/13 08:57:35;;;;;;;9.98;4.50;;;;;;;14.65;61.72;102564.41;5134175;27;20031;-59
2021/12/13 09:00:27;;;;;;;7.38;4.22;;;;;;;14.57;61.77;102547.91;5134968;27;20023;-60
2021/12/13 09:02:59;;;;;;;7.03;4.28;;;;;;;14.62;61.54;102558.34;5134124;27;20039;-60
2021/12/13 09:05:34;;;;;;;7.20;4.30;;;;;;;14.63;61.74;102555.75;5133915;27;20027;-59
2021/12/13 09:08:05;;;;;;;7.75;4.10;;;;;;;14.61;61.74;102557.47;5116606;27;20023;-61
2021/12/13 09:10:53;;;;;;;8.23;4.00;;;;;;;14.64;61.36;102557.44;5134828;27;20063;-60
2021/12/13 09:13:36;;;;;;;7.93;3.95;;;;;;;14.63;61.50;102558.34;5134662;27;20031;-60
2021/12/13 09:16:02;;;;;;;9.88;4.47;;;;;;;14.62;61.60;102566.19;5133856;27;20122;-59
2021/12/13 09:18:28;;;;;;;8.35;4.10;;;;;;;14.61;61.69;102565.31;5134512;27;20079;-61
2021/12/13 09:20:56;;;;;;;6.50;4.10;;;;;;;14.58;61.57;102567.94;5134586;27;20110;-61
2021/12/13 09:23:24;;;;;;;8.40;4.15;;;;;;;14.56;61.59;102563.59;5134588;27;20031;-60
2021/12/13 09:26:06;;;;;;;6.95;3.92;;;;;;;14.60;61.62;102574.03;5134665;27;20031;-61
2021/12/13 09:28:36;;;;;;;6.55;3.88;;;;;;;14.59;61.65;102579.25;5134161;27;20037;-59
2021/12/13 09:31:13;;;;;;;8.05;3.83;;;;;;;14.60;61.53;102587.09;5134377;27;20030;-60
2021/12/13 09:33:44;;;;;;;8.18;4.25;;;;;;;14.54;61.48;102587.09;5134054;27;20039;-60
2021/12/13 09:36:31;;;;;;;8.38;3.75;;;;;;;14.56;61.53;102584.50;5134242;27;20027;-60
2021/12/13 09:39:09;;;;;;;7.53;4.28;;;;;;;14.60;61.89;102604.50;5133879;27;20488;-60
2021/12/13 09:41:47;;;;;;;7.00;4.00;;;;;;;14.61;61.69;102607.13;5134120;27;20038;-60
2021/12/13 09:44:19;;;;;;;8.02;4.05;;;;;;;14.56;61.56;102606.25;5134205;27;20027;-60
2021/12/13 09:47:00;;;;;;;6.95;3.72;;;;;;;14.60;61.66;102620.19;5133780;27;20457;-60
2021/12/13 09:49:27;;;;;;;7.00;3.92;;;;;;;14.55;61.71;102617.59;5134007;27;20043;-59
2021/12/13 09:51:58;;;;;;;8.63;4.07;;;;;;;14.55;61.58;102628.03;5134081;27;20083;-61
2021/12/13 09:54:29;;;;;;;8.23;4.00;;;;;;;14.59;61.40;102636.72;5134098;27;20030;-60
2021/12/13 09:56:58;;;;;;;7.10;3.75;;;;;;;14.59;61.41;102635.00;5133925;28;20098;-60
2021/12/13 09:59:39;;;;;;;8.43;4.10;;;;;;;14.59;61.38;102636.72;5133021;28;20405;-60
2021/12/13 10:02:15;;;;;;;7.18;3.80;;;;;;;14.55;61.46;102637.63;5133594;28;20031;-60
2021/12/13 10:04:42;;;;;;;5.15;3.40;;;;;;;14.60;61.36;102644.59;5133985;28;20031;-60
2021/12/13 10:07:25;;;;;;;6.68;3.88;;;;;;;14.61;61.39;102646.31;5127501;28;20496;-60
2021/12/13 10:10:37;;;;;;;8.02;3.65;;;;;;;14.65;61.42;102644.56;5123544;28;20023;-60
2021/12/13 10:13:07;;;;;;;5.97;3.60;;;;;;;14.57;61.33;102630.66;5123001;28;20130;-61
2021/12/13 10:15:37;;;;;;;7.22;3.85;;;;;;;14.58;61.45;102629.78;5123918;27;20110;-60
2021/12/13 10:18:13;;;;;;;6.03;3.67;;;;;;;14.54;61.59;102621.06;5125955;27;20038;-59
2021/12/13 10:20:42;;;;;;;8.50;3.80;;;;;;;14.59;61.60;102626.28;5126375;27;20034;-61
2021/12/13 10:23:12;;;;;;;7.07;3.88;;;;;;;14.54;61.52;102620.22;5097615;27;20402;-60
2021/12/13 10:25:43;;;;;;;6.50;3.60;;;;;;;14.56;61.34;102619.31;5125483;27;20025;-59
2021/12/13 10:28:12;;;;;;;7.07;3.60;;;;;;;14.58;61.25;102627.19;5127610;27;20080;-60
2021/12/13 10:31:04;;;;;;;7.45;3.63;;;;;;;14.62;61.40;102626.28;5127460;27;20024;-61
2021/12/13 10:33:32;;;;;;;7.15;3.60;;;;;;;14.55;61.41;102614.13;5126667;27;20072;-60
2021/12/13 10:36:01;;;;;;;6.25;3.60;;;;;;;14.49;61.62;102608.03;5131198;27;20031;-60
2021/12/13 10:38:38;;;;;;;7.13;3.80;;;;;;;14.59;61.55;102613.22;5132485;27;20118;-60
2021/12/13 10:41:08;;;;;;;6.85;3.53;;;;;;;14.59;61.56;102616.72;5135731;27;20388;-59
2021/12/13 10:43:47;;;;;;;6.22;3.30;;;;;;;14.60;61.52;102615.84;5135556;27;20027;-59
2021/12/13 10:46:35;;;;;;;5.18;3.30;;;;;;;14.63;61.34;102620.19;5136603;27;20111;-60
2021/12/13 10:49:05;;;;;;;4.93;3.40;;;;;;;14.58;61.39;102617.59;5137635;27;20061;-60
2021/12/13 10:51:36;;;;;;;5.80;3.30;;;;;;;14.58;61.29;102620.19;5137716;27;20057;-60
2021/12/13 10:54:09;;;;;;;6.22;3.22;;;;;;;14.58;61.28;102619.34;5137286;27;20039;-60
2021/12/13 10:56:42;;;;;;;6.82;3.10;;;;;;;14.54;61.35;102608.00;5136927;27;20027;-60
2021/12/13 10:59:14;;;;;;;4.55;2.92;;;;;;;14.56;61.28;102613.25;5136983;27;20054;-60
2021/12/13 11:01:45;;;;;;;6.55;3.30;;;;;;;14.56;61.44;102615.84;5137683;27;20035;-61
2021/12/13 11:04:19;;;;;;;7.78;3.55;;;;;;;14.56;61.40;102610.63;5136881;27;20551;-60
2021/12/13 11:06:46;;;;;;;6.10;3.40;;;;;;;14.57;61.50;102607.16;5134147;27;20427;-60
2021/12/13 11:09:16;;;;;;;7.05;3.30;;;;;;;14.56;61.33;102606.25;5137020;27;20113;-60
2021/12/13 11:11:46;;;;;;;5.18;3.22;;;;;;;14.57;61.42;102601.94;5137223;27;20027;-61
2021/12/13 11:14:20;;;;;;;4.53;2.97;;;;;;;14.52;61.38;102597.56;5137117;27;20469;-60
2021/12/13 11:16:50;;;;;;;4.20;3.00;;;;;;;14.55;61.43;102595.81;5137163;27;20031;-60
2021/12/13 11:19:21;;;;;;;5.45;3.08;;;;;;;14.54;61.45;102602.78;5136956;27;20027;-60
2021/12/13 11:21:49;;;;;;;5.35;3.03;;;;;;;14.48;61.35;102584.53;5136930;27;20059;-60
2021/12/13 11:24:24;;;;;;;5.60;3.15;;;;;;;14.52;61.22;102589.72;5136927;27;20063;-60
2021/12/13 11:26:58;;;;;;;5.65;3.03;;;;;;;14.56;61.34;102598.44;5136569;27;20404;-60
2021/12/13 11:29:24;;;;;;;7.32;3.33;;;;;;;14.56;61.38;102598.44;5136758;27;20023;-60
2021/12/13 11:31:52;;;;;;;7.85;3.33;;;;;;;14.60;61.26;102602.78;5136825;27;20438;-60
2021/12/13 11:34:58;;;;;;;5.60;2.95;;;;;;;14.63;61.30;102608.00;5136153;27;20031;-60
2021/12/13 11:38:05;;;;;;;6.93;3.30;;;;;;;14.62;61.21;102603.63;5136859;27;20027;-60
2021/12/13 11:40:31;;;;;;;10.25;3.50;;;;;;;14.59;61.26;102606.25;5120999;27;20031;-60
2021/12/13 11:43:10;;;;;;;8.73;3.50;;;;;;;14.60;61.15;102600.16;5131759;27;20027;-61
2021/12/13 11:45:53;;;;;;;7.45;3.28;;;;;;;14.55;60.97;102593.22;5136849;27;20027;-61
2021/12/13 11:48:40;;;;;;;7.30;3.50;;;;;;;14.58;60.88;102596.69;5129586;27;20031;-60
2021/12/13 11:51:42;;;;;;;5.78;3.10;;;;;;;14.59;61.08;102597.53;5123232;27;20087;-61
2021/12/13 11:54:32;;;;;;;6.70;3.30;;;;;;;14.56;61.18;102601.03;5135214;27;20030;-61
2021/12/13 11:57:39;;;;;;;6.80;3.15;;;;;;;14.59;60.86;102595.81;5115330;28;20032;-60
2021/12/13 12:00:23;;;;;;;6.72;3.10;;;;;;;14.53;60.88;102601.03;5100419;28;20529;-60
2021/12/13 12:03:09;;;;;;;9.25;3.40;;;;;;;14.52;61.20;102602.78;5114770;28;20050;-59
2021/12/13 12:05:59;;;;;;;9.50;3.40;;;;;;;14.53;61.07;102595.81;5114932;28;20080;-60
2021/12/13 12:09:01;;;;;;;4.32;2.97;;;;;;;14.55;60.92;102585.38;5114959;28;20031;-60